createdAt,value
2022-09-26T00:01:44.028Z,99.90
2022-09-26T00:04:21.203Z,99.90
2022-09-26T00:06:52.394Z,99.90
2022-09-26T00:09:21.428Z,99.90
2022-09-26T00:11:51.382Z,99.90
2022-09-26T00:14:21.984Z,99.90
2022-09-26T00:16:50.570Z,99.90
2022-09-26T00:19:19.853Z,99.90
2022-09-26T00:21:48.705Z,99.90
2022-09-26T00:24:17.385Z,99.90
2022-09-26T00:26:45.843Z,99.90
2022-09-26T00:29:16.199Z,99.90
2022-09-26T00:31:47.491Z,99.90
2022-09-26T00:34:18.416Z,99.90
2022-09-26T00:36:46.906Z,99.90
2022-09-26T00:39:16.719Z,99.90
2022-09-26T00:41:45.787Z,99.90
2022-09-26T00:44:38.732Z,99.90
2022-09-26T00:47:15.091Z,99.90
2022-09-26T00:49:46.114Z,99.90
2022-09-26T00:52:19.361Z,99.90
2022-09-26T00:54:52.307Z,99.90
2022-09-26T00:57:25.014Z,99.90
2022-09-26T01:00:00.351Z,99.90
2022-09-26T01:02:30.044Z,99.90
2022-09-26T01:05:00.446Z,99.90
2022-09-26T01:07:30.733Z,99.90
2022-09-26T01:10:00.306Z,99.90
2022-09-26T01:12:28.711Z,99.90
2022-09-26T01:14:59.250Z,99.90
2022-09-26T01:17:28.655Z,99.90
2022-09-26T01:20:17.964Z,99.90
2022-09-26T01:23:22.543Z,99.90
2022-09-26T01:26:20.663Z,99.90
2022-09-26T01:29:06.119Z,99.90
2022-09-26T01:31:43.800Z,99.90
2022-09-26T01:34:17.999Z,99.90
2022-09-26T01:37:04.487Z,99.90
2022-09-26T01:39:48.126Z,99.90
2022-09-26T01:42:24.804Z,99.90
2022-09-26T01:44:59.599Z,99.90
2022-09-26T01:47:37.332Z,99.90
2022-09-26T01:50:11.866Z,99.90
2022-09-26T01:52:45.027Z,99.90
2022-09-26T01:55:17.524Z,99.90
2022-09-26T01:57:50.714Z,99.90
2022-09-26T02:00:19.773Z,99.90
2022-09-26T02:02:51.190Z,99.90
2022-09-26T02:05:26.789Z,99.90
2022-09-26T02:07:59.668Z,99.90
2022-09-26T02:10:34.075Z,99.90
2022-09-26T02:13:09.277Z,99.90
2022-09-26T02:15:40.473Z,99.90
2022-09-26T02:18:16.677Z,99.90
2022-09-26T02:20:53.034Z,99.90
2022-09-26T02:23:21.843Z,99.90
2022-09-26T02:25:51.041Z,99.90
2022-09-26T02:28:19.400Z,99.90
2022-09-26T02:30:50.806Z,99.90
2022-09-26T02:33:21.187Z,99.90
2022-09-26T02:35:55.641Z,99.90
2022-09-26T02:38:29.240Z,99.90
2022-09-26T02:41:03.048Z,99.90
2022-09-26T02:43:44.713Z,99.90
2022-09-26T02:46:45.324Z,99.90
2022-09-26T02:49:30.010Z,99.90
2022-09-26T02:52:14.407Z,99.90
2022-09-26T02:54:49.739Z,99.90
2022-09-26T02:57:30.819Z,99.90
2022-09-26T03:00:04.519Z,99.90
2022-09-26T03:02:37.467Z,99.90
2022-09-26T03:05:12.155Z,99.90
2022-09-26T03:07:46.422Z,99.90
2022-09-26T03:10:16.937Z,99.90
2022-09-26T03:12:46.225Z,99.90
2022-09-26T03:15:16.028Z,99.90
2022-09-26T03:17:48.942Z,99.90
2022-09-26T03:20:21.551Z,99.90
2022-09-26T03:22:51.058Z,99.90
2022-09-26T03:25:23.856Z,99.90
2022-09-26T03:27:53.332Z,99.90
2022-09-26T03:30:24.401Z,99.90
2022-09-26T03:32:52.947Z,99.90
2022-09-26T03:35:23.254Z,99.90
2022-09-26T03:37:51.676Z,99.90
2022-09-26T03:40:20.404Z,99.90
2022-09-26T03:42:48.773Z,99.90
2022-09-26T03:45:17.360Z,99.90
2022-09-26T03:47:45.959Z,99.90
2022-09-26T03:50:15.146Z,99.90
2022-09-26T03:52:44.919Z,99.90
2022-09-26T03:55:13.903Z,99.90
2022-09-26T03:57:42.766Z,99.90
2022-09-26T04:00:12.527Z,99.90
2022-09-26T04:02:41.344Z,99.90
2022-09-26T04:05:10.667Z,99.90
2022-09-26T04:07:39.172Z,99.90
2022-09-26T04:10:11.071Z,99.90
2022-09-26T04:12:39.559Z,99.90
2022-09-26T04:15:09.023Z,99.90
2022-09-26T04:17:37.748Z,99.90
2022-09-26T04:20:06.787Z,99.90
2022-09-26T04:22:35.156Z,99.90
2022-09-26T04:25:03.752Z,99.90
2022-09-26T04:27:33.508Z,99.90
2022-09-26T04:30:01.915Z,99.90
2022-09-26T04:32:31.800Z,99.90
2022-09-26T04:35:00.145Z,99.90
2022-09-26T04:37:28.687Z,99.90
2022-09-26T04:39:57.470Z,99.90
2022-09-26T04:42:26.105Z,99.90
2022-09-26T04:44:55.835Z,99.90
2022-09-26T04:47:24.547Z,99.90
2022-09-26T04:49:52.839Z,99.90
2022-09-26T04:52:21.373Z,99.90
2022-09-26T04:54:50.238Z,99.90
2022-09-26T04:57:19.991Z,99.90
2022-09-26T04:59:48.554Z,99.90
2022-09-26T05:02:20.758Z,99.90
2022-09-26T05:04:49.788Z,99.90
2022-09-26T05:07:18.397Z,99.90
2022-09-26T05:09:47.932Z,99.90
2022-09-26T05:12:18.171Z,99.90
2022-09-26T05:14:46.787Z,99.90
2022-09-26T05:17:15.556Z,99.90
2022-09-26T05:19:45.804Z,99.90
2022-09-26T05:22:14.097Z,99.90
2022-09-26T05:25:00.158Z,99.90
2022-09-26T05:27:28.731Z,99.90
2022-09-26T05:29:57.211Z,99.90
2022-09-26T05:32:27.501Z,99.90
2022-09-26T05:34:57.688Z,99.90
2022-09-26T05:37:26.185Z,99.90
2022-09-26T05:40:12.035Z,99.90
2022-09-26T05:42:40.596Z,99.90
2022-09-26T05:45:09.770Z,99.90
2022-09-26T05:47:38.467Z,99.90
2022-09-26T05:50:10.973Z,99.90
2022-09-26T05:52:40.513Z,99.90
2022-09-26T05:55:11.934Z,99.90
2022-09-26T05:57:40.465Z,99.90
2022-09-26T06:00:09.961Z,99.90
2022-09-26T06:02:38.752Z,99.90
2022-09-26T06:05:09.295Z,99.90
2022-09-26T06:07:37.806Z,99.90
2022-09-26T06:10:07.467Z,99.90
2022-09-26T06:12:36.563Z,99.90
2022-09-26T06:15:05.440Z,99.90
2022-09-26T06:17:34.309Z,99.90
2022-09-26T06:20:03.131Z,99.90
2022-09-26T06:22:39.290Z,99.90
2022-09-26T06:25:09.002Z,99.90
2022-09-26T06:27:39.527Z,99.90
2022-09-26T06:30:09.598Z,99.90
2022-09-26T06:32:40.132Z,99.90
2022-09-26T06:35:09.643Z,99.90
2022-09-26T06:37:39.521Z,99.90
2022-09-26T06:40:11.649Z,99.90
2022-09-26T06:42:40.710Z,99.90
2022-09-26T06:45:11.559Z,99.90
2022-09-26T06:47:40.182Z,99.90
2022-09-26T06:50:09.587Z,99.90
2022-09-26T06:52:39.611Z,99.90
2022-09-26T06:55:09.520Z,99.90
2022-09-26T06:57:40.476Z,99.90
2022-09-26T07:00:10.495Z,99.90
2022-09-26T07:02:39.382Z,99.90
2022-09-26T07:05:08.529Z,99.90
2022-09-26T07:07:43.820Z,99.90
2022-09-26T07:10:12.970Z,99.90
2022-09-26T07:12:44.164Z,99.90
2022-09-26T07:15:14.168Z,99.90
2022-09-26T07:17:43.614Z,99.90
2022-09-26T07:20:13.132Z,99.90
2022-09-26T07:22:44.019Z,99.90
2022-09-26T07:25:13.736Z,99.90
2022-09-26T07:27:42.566Z,99.90
2022-09-26T07:30:12.366Z,99.90
2022-09-26T07:32:46.241Z,99.90
2022-09-26T07:35:17.232Z,99.90
2022-09-26T07:37:47.141Z,99.90
2022-09-26T07:40:15.885Z,99.90
2022-09-26T07:43:04.001Z,99.90
2022-09-26T07:45:51.463Z,99.90
2022-09-26T07:48:37.396Z,99.90
2022-09-26T07:51:09.302Z,99.90
2022-09-26T07:53:41.422Z,99.90
2022-09-26T07:56:12.830Z,99.90
2022-09-26T07:58:43.284Z,99.90
2022-09-26T08:01:13.907Z,99.90
2022-09-26T08:03:44.357Z,99.90
2022-09-26T08:06:14.696Z,99.90
2022-09-26T08:08:44.434Z,99.90
2022-09-26T08:11:16.523Z,99.90
2022-09-26T08:13:45.931Z,99.90
2022-09-26T08:16:19.537Z,99.90
2022-09-26T08:18:48.483Z,99.90
2022-09-26T08:21:17.965Z,99.90
2022-09-26T08:23:48.248Z,99.90
2022-09-26T08:26:23.926Z,99.90
2022-09-26T08:28:52.348Z,99.90
2022-09-26T08:31:21.225Z,99.90
2022-09-26T08:33:49.630Z,99.90
2022-09-26T08:36:18.015Z,99.90
2022-09-26T08:38:50.908Z,99.90
2022-09-26T08:41:33.618Z,99.90
2022-09-26T08:44:22.002Z,99.90
2022-09-26T08:47:00.410Z,99.90
2022-09-26T08:49:41.794Z,99.90
2022-09-26T08:52:24.356Z,99.90
2022-09-26T08:54:56.491Z,99.90
2022-09-26T08:57:36.001Z,99.90
2022-09-26T09:00:19.176Z,99.90
2022-09-26T09:02:59.406Z,99.90
2022-09-26T09:05:33.016Z,99.90
2022-09-26T09:08:07.884Z,99.90
2022-09-26T09:10:46.806Z,99.90
2022-09-26T09:13:27.745Z,99.90
2022-09-26T09:16:19.768Z,99.90
2022-09-26T09:18:57.102Z,99.90
2022-09-26T09:21:42.012Z,99.90
2022-09-26T09:24:20.522Z,99.90
2022-09-26T09:30:16.499Z,99.90
2022-09-26T09:32:52.440Z,99.90
2022-09-26T09:35:36.607Z,99.90
2022-09-26T09:38:08.885Z,99.90
2022-09-26T09:40:42.699Z,99.90
2022-09-26T09:43:17.982Z,99.90
2022-09-26T09:45:49.352Z,99.90
2022-09-26T09:48:17.945Z,99.90
2022-09-26T09:51:02.161Z,99.90
2022-09-26T09:53:46.896Z,99.90
2022-09-26T09:56:29.099Z,99.90
2022-09-26T09:59:13.672Z,99.90
2022-09-26T10:01:43.983Z,99.90
2022-09-26T10:04:23.265Z,99.90
2022-09-26T10:06:52.907Z,99.90
2022-09-26T10:09:35.807Z,99.90
2022-09-26T10:12:16.225Z,99.90
2022-09-26T10:14:52.080Z,99.90
2022-09-26T10:17:22.497Z,99.90
2022-09-26T10:19:52.245Z,99.90
2022-09-26T10:22:26.739Z,99.90
2022-09-26T10:25:01.900Z,99.90
2022-09-26T10:27:36.997Z,99.90
2022-09-26T10:30:22.579Z,99.90
2022-09-26T10:32:56.753Z,99.90
2022-09-26T10:35:29.800Z,99.90
2022-09-26T10:38:03.290Z,99.90
2022-09-26T10:40:48.401Z,99.90
2022-09-26T10:43:24.060Z,99.90
2022-09-26T10:46:00.157Z,99.90
2022-09-26T10:48:47.143Z,99.90
2022-09-26T10:51:24.581Z,99.90
2022-09-26T10:53:57.887Z,99.90
2022-09-26T10:56:28.731Z,99.90
2022-09-26T10:59:00.709Z,99.90
2022-09-26T11:01:33.748Z,99.90
2022-09-26T11:04:15.807Z,99.90
2022-09-26T11:06:45.205Z,99.90
2022-09-26T11:09:20.740Z,99.90
2022-09-26T11:11:50.670Z,99.90
2022-09-26T11:14:29.092Z,99.90
2022-09-26T11:17:00.355Z,99.90
2022-09-26T11:19:39.062Z,99.90
2022-09-26T11:22:14.880Z,99.90
2022-09-26T11:24:55.661Z,99.90
2022-09-26T11:27:31.447Z,99.90
2022-09-26T11:30:03.470Z,99.90
2022-09-26T11:32:41.387Z,99.90
2022-09-26T11:35:16.125Z,99.90
2022-09-26T11:38:04.651Z,99.90
2022-09-26T11:40:53.313Z,99.90
2022-09-26T11:43:37.280Z,99.90
2022-09-26T11:46:26.950Z,99.90
2022-09-26T11:49:17.386Z,99.90
2022-09-26T11:51:59.068Z,99.90
2022-09-26T11:54:38.900Z,99.90
2022-09-26T11:57:18.578Z,99.90
2022-09-26T12:00:06.347Z,99.90
2022-09-26T12:03:01.555Z,99.90
2022-09-26T12:05:44.645Z,99.90
2022-09-26T12:08:31.292Z,99.90
2022-09-26T12:11:10.063Z,99.90
2022-09-26T12:13:48.170Z,99.90
2022-09-26T12:16:24.234Z,99.90
2022-09-26T12:19:05.259Z,99.60
2022-09-26T12:22:08.206Z,99.40
2022-09-26T12:24:45.250Z,99.30
2022-09-26T12:27:25.743Z,99.00
2022-09-26T12:30:05.152Z,98.80
2022-09-26T12:33:00.114Z,98.80
2022-09-26T12:35:44.869Z,98.60
2022-09-26T12:38:35.647Z,98.50
2022-09-26T12:41:25.085Z,98.60
2022-09-26T12:44:36.878Z,98.90
2022-09-26T12:47:27.140Z,98.50
2022-09-26T12:50:14.648Z,98.30
2022-09-26T12:53:06.667Z,98.40
2022-09-26T12:55:44.504Z,98.40
2022-09-26T12:58:34.682Z,98.40
2022-09-26T13:01:15.803Z,98.30
2022-09-26T13:04:06.646Z,98.20
2022-09-26T13:07:14.294Z,98.30
2022-09-26T13:09:59.043Z,98.40
2022-09-26T13:12:45.762Z,98.40
2022-09-26T13:15:29.052Z,98.20
2022-09-26T13:18:02.754Z,97.80
2022-09-26T13:20:40.896Z,97.40
2022-09-26T13:23:17.841Z,97.50
2022-09-26T13:25:51.101Z,97.70
2022-09-26T13:28:24.372Z,97.90
2022-09-26T13:30:58.112Z,97.50
2022-09-26T13:33:34.493Z,97.00
2022-09-26T13:36:04.476Z,96.70
2022-09-26T13:38:51.669Z,96.80
2022-09-26T13:41:33.732Z,96.90
2022-09-26T13:44:13.492Z,97.20
2022-09-26T13:46:54.556Z,97.40
2022-09-26T13:49:40.211Z,97.30
2022-09-26T13:52:22.697Z,97.40
2022-09-26T13:54:59.074Z,97.40
2022-09-26T13:57:46.871Z,97.40
2022-09-26T14:00:49.394Z,97.00
2022-09-26T14:03:39.178Z,96.40
2022-09-26T14:06:34.962Z,96.30
2022-09-26T14:09:27.920Z,96.50
2022-09-26T14:12:31.713Z,96.70
2022-09-26T14:15:17.172Z,96.80
2022-09-26T14:18:12.288Z,97.00
2022-09-26T14:20:56.474Z,97.20
2022-09-26T14:23:48.562Z,97.50
2022-09-26T14:26:22.096Z,97.10
2022-09-26T14:28:55.270Z,97.10
2022-09-26T14:31:57.442Z,97.20
2022-09-26T14:34:30.521Z,97.50
2022-09-26T14:37:03.458Z,97.70
2022-09-26T14:39:38.125Z,97.90
2022-09-26T14:42:24.024Z,98.00
2022-09-26T14:44:58.101Z,97.90
2022-09-26T14:47:28.771Z,98.00
2022-09-26T14:50:03.529Z,97.90
2022-09-26T14:52:33.031Z,98.20
2022-09-26T14:55:03.031Z,98.30
2022-09-26T14:57:34.279Z,98.50
2022-09-26T15:00:03.792Z,98.70
2022-09-26T15:02:50.618Z,98.70
2022-09-26T15:05:28.188Z,99.00
2022-09-26T15:08:00.639Z,99.30
2022-09-26T15:10:41.633Z,99.50
2022-09-26T15:13:26.734Z,99.80
2022-09-26T15:16:16.515Z,99.90
2022-09-26T15:18:49.151Z,99.90
2022-09-26T15:21:27.565Z,99.90
2022-09-26T15:23:58.049Z,99.90
2022-09-26T15:26:28.869Z,99.90
2022-09-26T15:28:59.131Z,99.90
2022-09-26T15:31:30.758Z,99.90
2022-09-26T15:34:02.580Z,99.90
2022-09-26T15:36:35.404Z,99.90
2022-09-26T15:39:29.904Z,99.90
2022-09-26T15:42:16.675Z,99.90
2022-09-26T15:44:49.443Z,99.90
2022-09-26T15:47:28.112Z,99.90
2022-09-26T15:50:10.277Z,99.90
2022-09-26T15:52:44.393Z,99.90
2022-09-26T15:55:19.437Z,99.90
2022-09-26T15:57:50.857Z,99.90
2022-09-26T16:00:19.646Z,99.90
2022-09-26T16:02:49.087Z,99.90
2022-09-26T16:05:18.964Z,99.90
2022-09-26T16:07:52.214Z,99.90
2022-09-26T16:10:23.435Z,99.90
2022-09-26T16:12:52.445Z,99.90
2022-09-26T16:15:30.047Z,99.90
2022-09-26T16:17:59.940Z,99.90
2022-09-26T16:20:30.800Z,99.90
2022-09-26T16:23:04.823Z,99.90
2022-09-26T16:25:52.808Z,99.90
2022-09-26T16:28:45.077Z,99.90
2022-09-26T16:31:26.729Z,99.90
2022-09-26T16:33:56.939Z,99.90
2022-09-26T16:36:28.159Z,99.90
2022-09-26T16:39:00.524Z,99.90
2022-09-26T16:41:59.960Z,99.90
2022-09-26T16:44:33.542Z,99.90
2022-09-26T16:47:05.476Z,99.90
2022-09-26T16:49:46.150Z,99.90
2022-09-26T16:52:35.456Z,99.90
2022-09-26T16:55:07.386Z,99.90
2022-09-26T16:57:39.847Z,99.90
2022-09-26T17:00:34.718Z,99.90
2022-09-26T17:03:04.200Z,99.90
2022-09-26T17:05:32.534Z,99.90
2022-09-26T17:08:01.080Z,99.90
2022-09-26T17:10:37.491Z,99.90
2022-09-26T17:13:06.316Z,99.90
2022-09-26T17:15:35.628Z,99.90
2022-09-26T17:18:08.318Z,99.90
2022-09-26T17:20:37.130Z,99.90
2022-09-26T17:23:22.205Z,99.90
2022-09-26T17:25:57.896Z,99.90
2022-09-26T17:28:33.793Z,99.90
2022-09-26T17:31:06.431Z,99.90
2022-09-26T17:33:40.503Z,99.90
2022-09-26T17:36:12.141Z,99.90
2022-09-26T17:38:41.223Z,99.90
2022-09-26T17:41:13.338Z,99.90
2022-09-26T17:43:41.838Z,99.90
2022-09-26T17:46:15.541Z,99.90
2022-09-26T17:48:45.635Z,99.90
2022-09-26T17:51:14.767Z,99.90
2022-09-26T17:53:50.464Z,99.90
2022-09-26T17:56:21.834Z,99.90
2022-09-26T17:58:51.964Z,99.90
2022-09-26T18:01:24.691Z,99.90
2022-09-26T18:03:56.779Z,99.90
2022-09-26T18:06:28.146Z,99.90
2022-09-26T18:08:59.694Z,99.90
2022-09-26T18:11:30.370Z,99.90
2022-09-26T18:13:59.370Z,99.90
2022-09-26T18:16:27.849Z,99.90
2022-09-26T18:18:56.541Z,99.90
2022-09-26T18:21:26.485Z,99.90
2022-09-26T18:23:58.269Z,99.90
2022-09-26T18:26:31.946Z,99.90
2022-09-26T18:29:06.498Z,99.90
2022-09-26T18:31:37.763Z,99.90
2022-09-26T18:34:11.387Z,99.90
2022-09-26T18:36:40.073Z,99.90
2022-09-26T18:39:08.466Z,99.90
2022-09-26T18:41:39.527Z,99.90
2022-09-26T18:44:13.106Z,99.90
2022-09-26T18:46:44.887Z,99.90
2022-09-26T18:49:15.285Z,99.90
2022-09-26T18:51:45.894Z,99.90
2022-09-26T18:54:16.421Z,99.90
2022-09-26T18:57:04.176Z,99.90
2022-09-26T18:59:32.863Z,99.90
2022-09-26T19:02:02.794Z,99.90
2022-09-26T19:04:31.807Z,99.90
2022-09-26T19:07:02.243Z,99.90
2022-09-26T19:09:34.308Z,99.90
2022-09-26T19:12:05.292Z,99.90
2022-09-26T19:14:34.387Z,99.90
2022-09-26T19:17:03.035Z,99.90
2022-09-26T19:19:32.565Z,99.90
2022-09-26T19:22:08.097Z,99.90
2022-09-26T19:24:39.056Z,99.90
2022-09-26T19:27:14.787Z,99.90
2022-09-26T19:29:45.986Z,99.90
2022-09-26T19:32:20.619Z,99.90
2022-09-26T19:34:53.483Z,99.90
2022-09-26T19:37:21.942Z,99.90
2022-09-26T19:39:50.613Z,99.90
2022-09-26T19:42:20.348Z,99.90
2022-09-26T19:44:49.454Z,99.90
2022-09-26T19:47:20.299Z,99.90
2022-09-26T19:49:50.506Z,99.90
2022-09-26T19:52:20.911Z,99.90
2022-09-26T19:54:49.301Z,99.90
2022-09-26T19:57:18.798Z,99.90
2022-09-26T19:59:49.588Z,99.90
2022-09-26T20:02:20.805Z,99.90
2022-09-26T20:04:49.990Z,99.90
2022-09-26T20:07:20.423Z,99.90
2022-09-26T20:09:49.343Z,99.90
2022-09-26T20:12:17.880Z,99.90
2022-09-26T20:14:46.314Z,99.90
2022-09-26T20:17:21.299Z,99.90
2022-09-26T20:19:50.273Z,99.90
2022-09-26T20:22:22.549Z,99.90
2022-09-26T20:24:54.950Z,99.90
2022-09-26T20:27:25.393Z,99.90
2022-09-26T20:30:11.544Z,99.90
2022-09-26T20:32:42.007Z,99.90
2022-09-26T20:35:15.448Z,99.90
2022-09-26T20:37:45.151Z,99.90
2022-09-26T20:40:18.287Z,99.90
2022-09-26T20:42:49.652Z,99.90
2022-09-26T20:45:20.563Z,99.90
2022-09-26T20:47:50.675Z,99.90
2022-09-26T20:50:21.546Z,99.90
2022-09-26T20:52:50.614Z,99.90
2022-09-26T20:55:20.762Z,99.90
2022-09-26T20:57:50.842Z,99.90
2022-09-26T21:00:21.428Z,99.90
2022-09-26T21:02:54.493Z,99.90
2022-09-26T21:05:25.135Z,99.90
2022-09-26T21:07:55.114Z,99.90
2022-09-26T21:10:25.433Z,99.90
2022-09-26T21:12:53.978Z,99.90
2022-09-26T21:15:24.150Z,99.90
2022-09-26T21:17:54.828Z,99.90
2022-09-26T21:20:26.532Z,99.90
2022-09-26T21:22:56.289Z,99.90
2022-09-26T21:25:26.937Z,99.90
2022-09-26T21:27:58.569Z,99.90
2022-09-26T21:30:27.096Z,99.90
2022-09-26T21:32:59.063Z,99.90
2022-09-26T21:35:31.110Z,99.90
2022-09-26T21:38:01.687Z,99.90
2022-09-26T21:40:32.758Z,99.90
2022-09-26T21:43:06.044Z,99.90
2022-09-26T21:45:35.158Z,99.90
2022-09-26T21:48:05.291Z,99.90
2022-09-26T21:50:33.886Z,99.90
2022-09-26T21:53:06.681Z,99.90
2022-09-26T21:55:38.708Z,99.90
2022-09-26T21:58:12.929Z,99.90
2022-09-26T22:00:41.679Z,99.90
2022-09-26T22:03:11.599Z,99.90
2022-09-26T22:05:40.179Z,99.90
2022-09-26T22:08:08.485Z,99.90
2022-09-26T22:10:38.001Z,99.90
2022-09-26T22:13:06.451Z,99.90
2022-09-26T22:15:34.926Z,99.90
2022-09-26T22:18:03.988Z,99.90
2022-09-26T22:20:34.866Z,99.90
2022-09-26T22:23:03.238Z,99.90
2022-09-26T22:25:32.539Z,99.90
2022-09-26T22:28:00.939Z,99.90
2022-09-26T22:30:29.442Z,99.90
2022-09-26T22:32:58.201Z,99.90
2022-09-26T22:35:26.783Z,99.90
2022-09-26T22:37:56.831Z,99.90
2022-09-26T22:40:25.595Z,99.90
2022-09-26T22:42:53.898Z,99.90
2022-09-26T22:45:22.236Z,99.90
2022-09-26T22:47:50.897Z,99.90
2022-09-26T22:50:19.242Z,99.90
2022-09-26T22:52:48.454Z,99.90
2022-09-26T22:55:18.833Z,99.90
2022-09-26T22:57:51.046Z,99.90
2022-09-26T23:00:19.877Z,99.90
2022-09-26T23:02:48.348Z,99.90
2022-09-26T23:05:16.896Z,99.90
2022-09-26T23:07:45.477Z,99.90
2022-09-26T23:10:13.761Z,99.90
2022-09-26T23:12:43.560Z,99.90
2022-09-26T23:15:12.625Z,99.90
2022-09-26T23:17:40.986Z,99.90
2022-09-26T23:20:10.057Z,99.90
2022-09-26T23:22:40.683Z,99.90
2022-09-26T23:25:10.129Z,99.90
2022-09-26T23:27:38.648Z,99.90
2022-09-26T23:30:10.061Z,99.90
2022-09-26T23:32:38.449Z,99.90
2022-09-26T23:35:07.853Z,99.90
2022-09-26T23:37:36.496Z,99.90
2022-09-26T23:40:05.351Z,99.90
2022-09-26T23:42:33.693Z,99.90
2022-09-26T23:45:02.377Z,99.90
2022-09-26T23:47:32.237Z,99.90
2022-09-26T23:50:00.618Z,99.90
2022-09-26T23:52:29.252Z,99.90
2022-09-26T23:54:57.702Z,99.90
2022-09-26T23:57:26.129Z,99.90
2022-09-26T23:59:54.602Z,99.90
